地図

経路データ

SID SEASON NUMBER BASIN SUBBASIN NAME ISO_TIME NATURE LAT LON WMO_WIND WMO_PRES WMO_AGENCY TRACK_TYPE DIST2LAND LANDFALL IFLAG USA_AGENCY USA_ATCF_ID USA_LAT USA_LON USA_RECORD USA_STATUS USA_WIND USA_PRES USA_SSHS USA_R34_NE USA_R34_SE USA_R34_SW USA_R34_NW USA_R50_NE USA_R50_SE USA_R50_SW USA_R50_NW USA_R64_NE USA_R64_SE USA_R64_SW USA_R64_NW USA_POCI USA_ROCI USA_RMW USA_EYE TOKYO_LAT TOKYO_LON TOKYO_GRADE TOKYO_WIND TOKYO_PRES TOKYO_R50_DIR TOKYO_R50_LONG TOKYO_R50_SHORT TOKYO_R30_DIR TOKYO_R30_LONG TOKYO_R30_SHORT TOKYO_LAND CMA_LAT CMA_LON CMA_CAT CMA_WIND CMA_PRES HKO_LAT HKO_LON HKO_CAT HKO_WIND HKO_PRES NEWDELHI_LAT NEWDELHI_LON NEWDELHI_GRADE NEWDELHI_WIND NEWDELHI_PRES NEWDELHI_CI NEWDELHI_DP NEWDELHI_POCI REUNION_LAT REUNION_LON REUNION_TYPE REUNION_WIND REUNION_PRES REUNION_TNUM REUNION_CI REUNION_RMW REUNION_R34_NE REUNION_R34_SE REUNION_R34_SW REUNION_R34_NW REUNION_R50_NE REUNION_R50_SE REUNION_R50_SW REUNION_R50_NW REUNION_R64_NE REUNION_R64_SE REUNION_R64_SW REUNION_R64_NW BOM_LAT BOM_LON BOM_TYPE BOM_WIND BOM_PRES BOM_TNUM BOM_CI BOM_RMW BOM_R34_NE BOM_R34_SE BOM_R34_SW BOM_R34_NW BOM_R50_NE BOM_R50_SE BOM_R50_SW BOM_R50_NW BOM_R64_NE BOM_R64_SE BOM_R64_SW BOM_R64_NW BOM_ROCI BOM_POCI BOM_EYE BOM_POS_METHOD BOM_PRES_METHOD NADI_LAT NADI_LON NADI_CAT NADI_WIND NADI_PRES WELLINGTON_LAT WELLINGTON_LON WELLINGTON_WIND WELLINGTON_PRES DS824_LAT DS824_LON DS824_STAGE DS824_WIND DS824_PRES TD9636_LAT TD9636_LON TD9636_STAGE TD9636_WIND TD9636_PRES TD9635_LAT TD9635_LON TD9635_WIND TD9635_PRES TD9635_ROCI NEUMANN_LAT NEUMANN_LON NEUMANN_CLASS NEUMANN_WIND NEUMANN_PRES MLC_LAT MLC_LON MLC_CLASS MLC_WIND MLC_PRES USA_GUST BOM_GUST BOM_GUST_PER REUNION_GUST REUNION_GUST_PER USA_SEAHGT USA_SEARAD_NE USA_SEARAD_SE USA_SEARAD_SW USA_SEARAD_NW STORM_SPEED STORM_DIR
1911284N12141 1911 64 WP MM NOT_NAMED 1911-10-11 04:00:00 NR 11.8000 141.200 main 1528 1528 __________O___ -1 11.8000 141.200 7 11 308
1911284N12141 1911 64 WP MM NOT_NAMED 1911-10-11 06:00:00 NR 12.0204 140.914 main 1536 1536 __________P___ -1 12.0204 140.914 7 11 308
1911284N12141 1911 64 WP MM NOT_NAMED 1911-10-11 09:00:00 NR 12.3493 140.491 main 1553 1560 __________P___ -1 12.3493 140.491 7 10 309
1911284N12141 1911 64 WP MM NOT_NAMED 1911-10-11 12:00:00 NR 12.6747 140.087 main 1568 1529 __________P___ -1 12.6747 140.087 7 10 310
1911284N12141 1911 64 WP MM NOT_NAMED 1911-10-11 15:00:00 NR 12.9948 139.715 main 1529 1519 __________P___ -1 12.9948 139.715 7 10 312
1911284N12141 1911 64 WP MM NOT_NAMED 1911-10-11 16:00:00 NR 13.1000 139.600 main 1519 1501 __________O___ -1 13.1000 139.600 7 9 314
1911284N12141 1911 64 WP MM NOT_NAMED 1911-10-11 18:00:00 NR 13.3085 139.385 main 1501 1474 __________P___ -1 13.3085 139.385 7 9 316
1911284N12141 1911 64 WP MM NOT_NAMED 1911-10-11 21:00:00 NR 13.6213 139.087 main 1474 1448 __________P___ -1 13.6213 139.087 7 9 318
1911284N12141 1911 64 WP MM NOT_NAMED 1911-10-12 00:00:00 NR 13.9425 138.801 main 1448 1424 __________P___ -1 13.9425 138.801 7 9 319
1911284N12141 1911 64 WP MM NOT_NAMED 1911-10-12 03:00:00 NR 14.2815 138.505 main 1427 1418 __________P___ -1 14.2815 138.505 7 9 320
1911284N12141 1911 64 WP MM NOT_NAMED 1911-10-12 04:00:00 NR 14.4000 138.400 main 1418 1400 __________O___ -1 14.4000 138.400 7 10 317
1911284N12141 1911 64 WP MM NOT_NAMED 1911-10-12 06:00:00 NR 14.6418 138.159 main 1400 1366 __________P___ -1 14.6418 138.159 7 10 316
1911284N12141 1911 64 WP MM NOT_NAMED 1911-10-12 09:00:00 NR 15.0231 137.779 main 1366 1334 __________P___ -1 15.0231 137.779 7 11 317
1911284N12141 1911 64 WP MM NOT_NAMED 1911-10-12 12:00:00 NR 15.4268 137.392 main 1334 1304 __________P___ -1 15.4268 137.392 7 11 319
1911284N12141 1911 64 WP MM NOT_NAMED 1911-10-12 15:00:00 NR 15.8530 137.019 main 1308 1301 __________P___ -1 15.8530 137.019 7 11 320
1911284N12141 1911 64 WP MM NOT_NAMED 1911-10-12 16:00:00 NR 16.0000 136.900 main 1301 1287 __________O___ -1 16.0000 136.900 7 11 322
1911284N12141 1911 64 WP MM NOT_NAMED 1911-10-12 18:00:00 NR 16.2864 136.662 main 1291 1267 __________P___ -1 16.2864 136.662 7 11 323
1911284N12141 1911 64 WP MM NOT_NAMED 1911-10-12 21:00:00 NR 16.7347 136.323 main 1267 1260 __________P___ -1 16.7347 136.323 7 11 326
1911284N12141 1911 64 WP MM NOT_NAMED 1911-10-13 00:00:00 NR 17.2110 136.021 main 1260 1255 __________P___ -1 17.2110 136.021 7 11 332
1911284N12141 1911 64 WP MM NOT_NAMED 1911-10-13 03:00:00 NR 17.7213 135.770 main 1266 1262 __________P___ -1 17.7213 135.770 7 11 336
1911284N12141 1911 64 WP MM NOT_NAMED 1911-10-13 04:00:00 NR 17.9000 135.700 main 1267 1263 __________O___ -1 17.9000 135.700 7 12 341
1911284N12141 1911 64 WP MM NOT_NAMED 1911-10-13 06:00:00 NR 18.2634 135.577 main 1280 1277 __________P___ -1 18.2634 135.577 7 12 345
1911284N12141 1911 64 WP MM NOT_NAMED 1911-10-13 09:00:00 NR 18.8401 135.443 main 1292 1298 __________P___ -1 18.8401 135.443 7 12 350
1911284N12141 1911 64 WP MM NOT_NAMED 1911-10-13 12:00:00 NR 19.4490 135.358 main 1323 1301 __________P___ -1 19.4490 135.358 7 13 354
1911284N12141 1911 64 WP MM NOT_NAMED 1911-10-13 15:00:00 NR 20.0838 135.310 main 1301 1280 __________P___ -1 20.0838 135.310 7 13 356
1911284N12141 1911 64 WP MM NOT_NAMED 1911-10-13 16:00:00 NR 20.3000 135.300 main 1280 1228 __________O___ -1 20.3000 135.300 7 13 356
1911284N12141 1911 64 WP MM NOT_NAMED 1911-10-13 18:00:00 NR 20.7511 135.264 main 1228 1161 __________P___ -1 20.7511 135.264 7 14 357
1911284N12141 1911 64 WP MM NOT_NAMED 1911-10-13 21:00:00 NR 21.4473 135.235 main 1161 1089 __________P___ -1 21.4473 135.235 7 14 0
1911284N12141 1911 64 WP MM NOT_NAMED 1911-10-14 00:00:00 NR 22.1389 135.239 main 1089 1022 __________P___ -1 22.1389 135.239 7 14 2
1911284N12141 1911 64 WP MM NOT_NAMED 1911-10-14 03:00:00 NR 22.7947 135.278 main 1022 1002 __________P___ -1 22.7947 135.278 7 13 4
1911284N12141 1911 64 WP MM NOT_NAMED 1911-10-14 04:00:00 NR 23.0000 135.300 main 1002 962 __________O___ -1 23.0000 135.300 7 12 7
1911284N12141 1911 64 WP MM NOT_NAMED 1911-10-14 06:00:00 NR 23.3732 135.349 main 962 917 __________P___ -1 23.3732 135.349 7 11 9
1911284N12141 1911 64 WP MM NOT_NAMED 1911-10-14 09:00:00 NR 23.8890 135.455 main 922 880 __________P___ -1 23.8890 135.455 7 10 12
1911284N12141 1911 64 WP MM NOT_NAMED 1911-10-14 12:00:00 NR 24.3713 135.590 main 880 848 __________P___ -1 24.3713 135.590 7 10 16
1911284N12141 1911 64 WP MM NOT_NAMED 1911-10-14 15:00:00 NR 24.8419 135.746 main 848 834 __________P___ -1 24.8419 135.746 7 10 17
1911284N12141 1911 64 WP MM NOT_NAMED 1911-10-14 16:00:00 NR 25.0000 135.800 main 834 810 __________O___ -1 25.0000 135.800 7 10 17
1911284N12141 1911 64 WP MM NOT_NAMED 1911-10-14 18:00:00 NR 25.3215 135.911 main 810 774 __________P___ -1 25.3215 135.911 7 10 17
1911284N12141 1911 64 WP MM NOT_NAMED 1911-10-14 21:00:00 NR 25.8156 136.083 main 774 736 __________P___ -1 25.8156 136.083 7 11 18
1911284N12141 1911 64 WP MM NOT_NAMED 1911-10-15 00:00:00 NR 26.3198 136.259 main 742 706 __________P___ -1 26.3198 136.259 7 11 17
1911284N12141 1911 64 WP MM NOT_NAMED 1911-10-15 03:00:00 NR 26.8296 136.439 main 706 696 __________P___ -1 26.8296 136.439 7 11 18
1911284N12141 1911 64 WP MM NOT_NAMED 1911-10-15 04:00:00 NR 27.0000 136.500 main 696 __________O___ -1 27.0000 136.500 7 11 20

デジタル台風データ・検索

IBTrACS Databaseについて

本データベースは、米国NOAAが公開する1842年以降の世界の熱帯低気圧のベストトラックデータアーカイブInternational Best Track Archive for Climate Stewardship (IBTrACS)を、ウェブで閲覧しやすい形式に変換したものです。

最終更新日:2021-11-26